sensor_id;sensor_type;location;lat;lon;timestamp;temperature;humidity
29713;DHT22;16623;53.632;10.016;2023-04-20T00:01:39;9.10;68.90
29713;DHT22;16623;53.632;10.016;2023-04-20T00:04:05;9.10;69.20
29713;DHT22;16623;53.632;10.016;2023-04-20T00:06:30;9.00;69.70
29713;DHT22;16623;53.632;10.016;2023-04-20T00:08:58;9.00;70.10
29713;DHT22;16623;53.632;10.016;2023-04-20T00:11:29;8.90;70.30
29713;DHT22;16623;53.632;10.016;2023-04-20T00:13:55;9.00;71.20
29713;DHT22;16623;53.632;10.016;2023-04-20T00:16:22;8.80;71.80
29713;DHT22;16623;53.632;10.016;2023-04-20T00:18:47;8.80;72.40
29713;DHT22;16623;53.632;10.016;2023-04-20T00:21:13;9.80;73.30
29713;DHT22;16623;53.632;10.016;2023-04-20T00:23:40;8.80;73.20
29713;DHT22;16623;53.632;10.016;2023-04-20T00:26:05;8.70;73.70
29713;DHT22;16623;53.632;10.016;2023-04-20T00:28:32;8.70;74.70
29713;DHT22;16623;53.632;10.016;2023-04-20T00:30:57;8.60;75.30
29713;DHT22;16623;53.632;10.016;2023-04-20T00:33:23;8.60;76.20
29713;DHT22;16623;53.632;10.016;2023-04-20T00:35:48;8.50;76.30
29713;DHT22;16623;53.632;10.016;2023-04-20T00:38:14;8.60;77.60
29713;DHT22;16623;53.632;10.016;2023-04-20T00:40:42;8.40;81.00
29713;DHT22;16623;53.632;10.016;2023-04-20T00:43:12;9.60;85.40
29713;DHT22;16623;53.632;10.016;2023-04-20T00:45:38;7.80;85.30
29713;DHT22;16623;53.632;10.016;2023-04-20T00:48:05;7.80;85.00
29713;DHT22;16623;53.632;10.016;2023-04-20T00:50:31;7.80;86.70
29713;DHT22;16623;53.632;10.016;2023-04-20T00:52:57;7.80;86.30
29713;DHT22;16623;53.632;10.016;2023-04-20T00:55:22;7.70;87.80
29713;DHT22;16623;53.632;10.016;2023-04-20T00:57:48;7.80;87.00
29713;DHT22;16623;53.632;10.016;2023-04-20T01:00:17;7.70;86.70
29713;DHT22;16623;53.632;10.016;2023-04-20T01:02:43;7.80;87.60
29713;DHT22;16623;53.632;10.016;2023-04-20T01:05:08;7.70;89.40
29713;DHT22;16623;53.632;10.016;2023-04-20T01:07:34;7.70;89.80
29713;DHT22;16623;53.632;10.016;2023-04-20T01:10:01;7.60;90.30
29713;DHT22;16623;53.632;10.016;2023-04-20T01:12:26;7.70;90.00
29713;DHT22;16623;53.632;10.016;2023-04-20T01:14:52;7.70;88.60
29713;DHT22;16623;53.632;10.016;2023-04-20T01:17:18;7.80;89.20
29713;DHT22;16623;53.632;10.016;2023-04-20T01:19:44;7.80;88.40
29713;DHT22;16623;53.632;10.016;2023-04-20T01:22:17;7.80;89.30
29713;DHT22;16623;53.632;10.016;2023-04-20T01:24:43;7.80;89.70
29713;DHT22;16623;53.632;10.016;2023-04-20T01:27:08;7.70;89.50
29713;DHT22;16623;53.632;10.016;2023-04-20T01:29:34;7.70;89.50
29713;DHT22;16623;53.632;10.016;2023-04-20T01:32:00;7.70;90.00
29713;DHT22;16623;53.632;10.016;2023-04-20T01:34:25;7.70;90.20
29713;DHT22;16623;53.632;10.016;2023-04-20T01:36:51;7.70;90.00
29713;DHT22;16623;53.632;10.016;2023-04-20T01:39:17;7.70;90.40
29713;DHT22;16623;53.632;10.016;2023-04-20T01:41:42;8.50;90.20
29713;DHT22;16623;53.632;10.016;2023-04-20T01:44:08;7.80;90.40
29713;DHT22;16623;53.632;10.016;2023-04-20T01:46:36;7.80;90.40
29713;DHT22;16623;53.632;10.016;2023-04-20T01:49:04;7.70;90.80
29713;DHT22;16623;53.632;10.016;2023-04-20T01:51:29;7.70;92.10
29713;DHT22;16623;53.632;10.016;2023-04-20T01:53:57;9.30;93.40
29713;DHT22;16623;53.632;10.016;2023-04-20T01:56:23;8.50;94.50
29713;DHT22;16623;53.632;10.016;2023-04-20T01:58:49;7.20;94.40
29713;DHT22;16623;53.632;10.016;2023-04-20T02:01:14;7.10;95.60
29713;DHT22;16623;53.632;10.016;2023-04-20T02:03:40;7.10;96.10
29713;DHT22;16623;53.632;10.016;2023-04-20T02:06:05;7.10;98.10
29713;DHT22;16623;53.632;10.016;2023-04-20T02:08:32;7.00;98.50
29713;DHT22;16623;53.632;10.016;2023-04-20T02:10:57;7.00;98.90
29713;DHT22;16623;53.632;10.016;2023-04-20T02:13:23;7.00;99.90
29713;DHT22;16623;53.632;10.016;2023-04-20T02:15:48;7.00;99.90
29713;DHT22;16623;53.632;10.016;2023-04-20T02:18:14;6.90;99.90
29713;DHT22;16623;53.632;10.016;2023-04-20T02:20:40;6.90;99.90
29713;DHT22;16623;53.632;10.016;2023-04-20T02:23:06;6.90;99.90
29713;DHT22;16623;53.632;10.016;2023-04-20T02:25:32;6.90;99.90
29713;DHT22;16623;53.632;10.016;2023-04-20T02:27:58;6.90;99.90
29713;DHT22;16623;53.632;10.016;2023-04-20T02:30:23;7.00;99.90
29713;DHT22;16623;53.632;10.016;2023-04-20T02:32:49;7.00;99.90
29713;DHT22;16623;53.632;10.016;2023-04-20T02:35:15;7.00;99.90
29713;DHT22;16623;53.632;10.016;2023-04-20T02:37:41;7.00;99.90
29713;DHT22;16623;53.632;10.016;2023-04-20T02:40:07;7.00;99.90
29713;DHT22;16623;53.632;10.016;2023-04-20T02:42:33;7.00;99.90
29713;DHT22;16623;53.632;10.016;2023-04-20T02:45:00;7.00;99.90
29713;DHT22;16623;53.632;10.016;2023-04-20T02:47:26;7.00;99.90
29713;DHT22;16623;53.632;10.016;2023-04-20T02:49:52;7.00;99.90
29713;DHT22;16623;53.632;10.016;2023-04-20T02:52:17;7.10;99.90
29713;DHT22;16623;53.632;10.016;2023-04-20T02:54:43;7.00;99.90
29713;DHT22;16623;53.632;10.016;2023-04-20T02:57:08;7.00;99.90
29713;DHT22;16623;53.632;10.016;2023-04-20T02:59:36;7.10;99.90
29713;DHT22;16623;53.632;10.016;2023-04-20T03:02:01;7.10;99.90
29713;DHT22;16623;53.632;10.016;2023-04-20T03:04:27;7.00;99.90
29713;DHT22;16623;53.632;10.016;2023-04-20T03:06:52;7.00;99.90
29713;DHT22;16623;53.632;10.016;2023-04-20T03:09:18;7.10;99.90
29713;DHT22;16623;53.632;10.016;2023-04-20T03:11:44;7.00;99.90
29713;DHT22;16623;53.632;10.016;2023-04-20T03:14:10;7.00;99.90
29713;DHT22;16623;53.632;10.016;2023-04-20T03:16:36;7.00;99.90
29713;DHT22;16623;53.632;10.016;2023-04-20T03:19:01;6.90;99.90
29713;DHT22;16623;53.632;10.016;2023-04-20T03:21:27;7.90;99.90
29713;DHT22;16623;53.632;10.016;2023-04-20T03:23:53;6.80;99.90
29713;DHT22;16623;53.632;10.016;2023-04-20T03:26:19;6.80;99.90
29713;DHT22;16623;53.632;10.016;2023-04-20T03:28:44;6.50;99.90
29713;DHT22;16623;53.632;10.016;2023-04-20T03:31:10;6.60;99.90
29713;DHT22;16623;53.632;10.016;2023-04-20T03:33:36;6.50;99.90
29713;DHT22;16623;53.632;10.016;2023-04-20T03:36:01;6.40;99.90
29713;DHT22;16623;53.632;10.016;2023-04-20T03:38:29;6.30;99.90
29713;DHT22;16623;53.632;10.016;2023-04-20T03:40:54;6.30;99.90
29713;DHT22;16623;53.632;10.016;2023-04-20T03:43:20;6.20;99.90
29713;DHT22;16623;53.632;10.016;2023-04-20T03:45:45;6.10;99.90
29713;DHT22;16623;53.632;10.016;2023-04-20T03:48:12;6.10;99.90
29713;DHT22;16623;53.632;10.016;2023-04-20T03:50:37;5.90;99.90
29713;DHT22;16623;53.632;10.016;2023-04-20T03:53:03;5.80;99.90
29713;DHT22;16623;53.632;10.016;2023-04-20T03:55:28;5.70;99.90
29713;DHT22;16623;53.632;10.016;2023-04-20T03:57:53;5.50;99.90
29713;DHT22;16623;53.632;10.016;2023-04-20T04:00:19;5.60;99.90
29713;DHT22;16623;53.632;10.016;2023-04-20T04:02:45;5.60;99.90
29713;DHT22;16623;53.632;10.016;2023-04-20T04:05:10;5.40;99.90
29713;DHT22;16623;53.632;10.016;2023-04-20T04:07:36;5.40;99.90
29713;DHT22;16623;53.632;10.016;2023-04-20T04:10:02;5.50;99.90
29713;DHT22;16623;53.632;10.016;2023-04-20T04:12:30;5.40;99.90
29713;DHT22;16623;53.632;10.016;2023-04-20T04:14:56;5.40;99.90
29713;DHT22;16623;53.632;10.016;2023-04-20T04:17:21;5.40;99.90
29713;DHT22;16623;53.632;10.016;2023-04-20T04:19:47;5.40;99.90
29713;DHT22;16623;53.632;10.016;2023-04-20T04:22:13;5.40;99.90
29713;DHT22;16623;53.632;10.016;2023-04-20T04:24:38;5.40;99.90
29713;DHT22;16623;53.632;10.016;2023-04-20T04:27:06;5.30;99.90
29713;DHT22;16623;53.632;10.016;2023-04-20T04:29:32;5.50;99.90
29713;DHT22;16623;53.632;10.016;2023-04-20T04:32:03;5.30;99.90
29713;DHT22;16623;53.632;10.016;2023-04-20T04:34:30;5.40;99.90
29713;DHT22;16623;53.632;10.016;2023-04-20T04:36:55;5.40;99.90
29713;DHT22;16623;53.632;10.016;2023-04-20T04:39:21;6.30;99.90
29713;DHT22;16623;53.632;10.016;2023-04-20T04:41:47;5.30;99.90
29713;DHT22;16623;53.632;10.016;2023-04-20T04:44:12;5.50;99.90
29713;DHT22;16623;53.632;10.016;2023-04-20T04:46:39;5.50;99.90
29713;DHT22;16623;53.632;10.016;2023-04-20T04:49:06;5.40;99.90
29713;DHT22;16623;53.632;10.016;2023-04-20T04:51:32;5.50;99.90
29713;DHT22;16623;53.632;10.016;2023-04-20T04:54:01;5.50;99.90
29713;DHT22;16623;53.632;10.016;2023-04-20T04:56:26;5.50;99.90
29713;DHT22;16623;53.632;10.016;2023-04-20T05:01:18;5.50;99.90
29713;DHT22;16623;53.632;10.016;2023-04-20T05:06:11;5.50;99.90
29713;DHT22;16623;53.632;10.016;2023-04-20T05:08:37;5.50;99.90
29713;DHT22;16623;53.632;10.016;2023-04-20T05:11:02;5.50;99.90
29713;DHT22;16623;53.632;10.016;2023-04-20T05:13:28;5.60;99.90
29713;DHT22;16623;53.632;10.016;2023-04-20T05:15:54;5.50;99.90
29713;DHT22;16623;53.632;10.016;2023-04-20T05:20:55;5.60;99.90
29713;DHT22;16623;53.632;10.016;2023-04-20T05:23:20;5.60;99.90
29713;DHT22;16623;53.632;10.016;2023-04-20T05:25:46;5.60;99.90
29713;DHT22;16623;53.632;10.016;2023-04-20T05:28:11;5.60;99.90
29713;DHT22;16623;53.632;10.016;2023-04-20T05:30:41;5.60;99.90
29713;DHT22;16623;53.632;10.016;2023-04-20T05:33:07;5.60;99.90
29713;DHT22;16623;53.632;10.016;2023-04-20T05:35:32;5.60;99.90
29713;DHT22;16623;53.632;10.016;2023-04-20T05:37:58;5.60;99.90
29713;DHT22;16623;53.632;10.016;2023-04-20T05:40:26;5.60;99.90
29713;DHT22;16623;53.632;10.016;2023-04-20T05:42:52;5.70;99.90
29713;DHT22;16623;53.632;10.016;2023-04-20T05:45:17;5.70;99.90
29713;DHT22;16623;53.632;10.016;2023-04-20T05:47:51;5.70;99.90
29713;DHT22;16623;53.632;10.016;2023-04-20T05:50:17;5.70;99.90
29713;DHT22;16623;53.632;10.016;2023-04-20T05:52:43;5.70;99.90
29713;DHT22;16623;53.632;10.016;2023-04-20T05:55:08;5.70;99.90
29713;DHT22;16623;53.632;10.016;2023-04-20T05:57:34;5.70;99.90
29713;DHT22;16623;53.632;10.016;2023-04-20T06:00:10;5.70;99.90
29713;DHT22;16623;53.632;10.016;2023-04-20T06:02:36;5.70;99.90
29713;DHT22;16623;53.632;10.016;2023-04-20T06:05:01;5.60;99.90
29713;DHT22;16623;53.632;10.016;2023-04-20T06:07:27;5.70;99.90
29713;DHT22;16623;53.632;10.016;2023-04-20T06:09:53;5.70;99.90
29713;DHT22;16623;53.632;10.016;2023-04-20T06:12:19;5.70;99.90
29713;DHT22;16623;53.632;10.016;2023-04-20T06:14:45;5.70;99.90
29713;DHT22;16623;53.632;10.016;2023-04-20T06:17:10;5.70;99.90
29713;DHT22;16623;53.632;10.016;2023-04-20T06:19:36;5.70;99.90
29713;DHT22;16623;53.632;10.016;2023-04-20T06:22:08;5.80;99.90
29713;DHT22;16623;53.632;10.016;2023-04-20T06:24:34;5.80;99.90
29713;DHT22;16623;53.632;10.016;2023-04-20T06:27:00;5.80;99.90
29713;DHT22;16623;53.632;10.016;2023-04-20T06:29:27;5.80;99.90
29713;DHT22;16623;53.632;10.016;2023-04-20T06:31:53;5.80;99.90
29713;DHT22;16623;53.632;10.016;2023-04-20T06:34:19;5.80;99.90
29713;DHT22;16623;53.632;10.016;2023-04-20T06:36:45;5.80;99.90
29713;DHT22;16623;53.632;10.016;2023-04-20T06:39:11;5.80;99.90
29713;DHT22;16623;53.632;10.016;2023-04-20T06:41:37;5.80;99.90
29713;DHT22;16623;53.632;10.016;2023-04-20T06:44:04;5.90;99.90
29713;DHT22;16623;53.632;10.016;2023-04-20T06:46:29;5.80;99.90
29713;DHT22;16623;53.632;10.016;2023-04-20T06:48:55;5.80;99.90
29713;DHT22;16623;53.632;10.016;2023-04-20T06:51:21;5.80;99.90
29713;DHT22;16623;53.632;10.016;2023-04-20T06:53:47;5.80;99.90
29713;DHT22;16623;53.632;10.016;2023-04-20T06:56:12;5.80;99.90
29713;DHT22;16623;53.632;10.016;2023-04-20T06:58:38;5.80;99.90
29713;DHT22;16623;53.632;10.016;2023-04-20T07:01:04;5.80;99.90
29713;DHT22;16623;53.632;10.016;2023-04-20T07:03:30;5.90;99.90
29713;DHT22;16623;53.632;10.016;2023-04-20T07:05:55;5.90;99.90
29713;DHT22;16623;53.632;10.016;2023-04-20T07:08:21;5.90;99.90
29713;DHT22;16623;53.632;10.016;2023-04-20T07:10:49;5.90;99.90
29713;DHT22;16623;53.632;10.016;2023-04-20T07:13:15;5.90;99.90
29713;DHT22;16623;53.632;10.016;2023-04-20T07:15:41;5.90;99.90
29713;DHT22;16623;53.632;10.016;2023-04-20T07:18:09;5.90;99.90
29713;DHT22;16623;53.632;10.016;2023-04-20T07:20:35;6.00;99.90
29713;DHT22;16623;53.632;10.016;2023-04-20T07:23:00;5.90;99.90
29713;DHT22;16623;53.632;10.016;2023-04-20T07:25:26;5.90;99.90
29713;DHT22;16623;53.632;10.016;2023-04-20T07:27:52;5.90;99.90
29713;DHT22;16623;53.632;10.016;2023-04-20T07:30:17;6.00;99.90
29713;DHT22;16623;53.632;10.016;2023-04-20T07:32:43;6.00;99.90
29713;DHT22;16623;53.632;10.016;2023-04-20T07:35:09;6.00;99.90
29713;DHT22;16623;53.632;10.016;2023-04-20T07:37:35;6.00;99.90
29713;DHT22;16623;53.632;10.016;2023-04-20T07:40:01;6.10;99.90
29713;DHT22;16623;53.632;10.016;2023-04-20T07:42:31;6.00;99.90
29713;DHT22;16623;53.632;10.016;2023-04-20T07:44:57;6.00;99.90
29713;DHT22;16623;53.632;10.016;2023-04-20T07:47:23;6.00;99.90
29713;DHT22;16623;53.632;10.016;2023-04-20T07:49:48;6.10;99.90
29713;DHT22;16623;53.632;10.016;2023-04-20T07:52:14;6.10;99.90
29713;DHT22;16623;53.632;10.016;2023-04-20T07:54:39;6.10;99.90
29713;DHT22;16623;53.632;10.016;2023-04-20T07:57:05;6.10;99.90
29713;DHT22;16623;53.632;10.016;2023-04-20T07:59:32;6.10;99.90
29713;DHT22;16623;53.632;10.016;2023-04-20T08:02:01;6.10;99.90
29713;DHT22;16623;53.632;10.016;2023-04-20T08:04:28;6.10;99.90
29713;DHT22;16623;53.632;10.016;2023-04-20T08:06:53;6.10;99.90
29713;DHT22;16623;53.632;10.016;2023-04-20T08:09:19;6.10;99.90
29713;DHT22;16623;53.632;10.016;2023-04-20T08:11:45;6.10;99.90
29713;DHT22;16623;53.632;10.016;2023-04-20T08:14:11;6.10;99.90
29713;DHT22;16623;53.632;10.016;2023-04-20T08:16:37;6.10;99.90
29713;DHT22;16623;53.632;10.016;2023-04-20T08:19:03;6.20;99.90
29713;DHT22;16623;53.632;10.016;2023-04-20T08:21:35;6.20;99.90
29713;DHT22;16623;53.632;10.016;2023-04-20T08:24:01;6.20;99.90
29713;DHT22;16623;53.632;10.016;2023-04-20T08:26:26;6.20;99.90
29713;DHT22;16623;53.632;10.016;2023-04-20T08:28:52;6.20;99.90
29713;DHT22;16623;53.632;10.016;2023-04-20T08:31:17;6.20;99.90
29713;DHT22;16623;53.632;10.016;2023-04-20T08:33:43;6.20;99.90
29713;DHT22;16623;53.632;10.016;2023-04-20T08:36:08;6.20;99.90
29713;DHT22;16623;53.632;10.016;2023-04-20T08:39:07;6.20;99.90
29713;DHT22;16623;53.632;10.016;2023-04-20T08:41:34;6.20;99.90
29713;DHT22;16623;53.632;10.016;2023-04-20T08:44:00;6.20;99.90
29713;DHT22;16623;53.632;10.016;2023-04-20T08:46:26;6.20;99.90
29713;DHT22;16623;53.632;10.016;2023-04-20T08:48:52;6.20;99.90
29713;DHT22;16623;53.632;10.016;2023-04-20T08:51:22;6.20;99.90
29713;DHT22;16623;53.632;10.016;2023-04-20T08:53:48;6.20;99.90
29713;DHT22;16623;53.632;10.016;2023-04-20T08:56:13;6.30;99.90
29713;DHT22;16623;53.632;10.016;2023-04-20T08:58:41;6.30;99.90
29713;DHT22;16623;53.632;10.016;2023-04-20T09:01:11;6.40;99.90
29713;DHT22;16623;53.632;10.016;2023-04-20T09:03:41;6.30;99.90
29713;DHT22;16623;53.632;10.016;2023-04-20T09:06:17;6.40;99.90
29713;DHT22;16623;53.632;10.016;2023-04-20T09:08:44;6.40;99.90
29713;DHT22;16623;53.632;10.016;2023-04-20T09:11:24;6.40;99.90
29713;DHT22;16623;53.632;10.016;2023-04-20T09:14:16;6.50;99.90
29713;DHT22;16623;53.632;10.016;2023-04-20T09:16:53;6.60;99.90
29713;DHT22;16623;53.632;10.016;2023-04-20T09:19:25;6.70;99.90
29713;DHT22;16623;53.632;10.016;2023-04-20T09:21:52;6.90;99.90
29713;DHT22;16623;53.632;10.016;2023-04-20T09:24:23;6.80;99.90
29713;DHT22;16623;53.632;10.016;2023-04-20T09:26:49;6.90;99.90
29713;DHT22;16623;53.632;10.016;2023-04-20T09:29:16;6.90;99.90
29713;DHT22;16623;53.632;10.016;2023-04-20T09:31:45;6.90;99.90
29713;DHT22;16623;53.632;10.016;2023-04-20T09:34:11;6.80;99.90
29713;DHT22;16623;53.632;10.016;2023-04-20T09:39:11;6.90;99.90
29713;DHT22;16623;53.632;10.016;2023-04-20T09:41:38;7.10;99.90
29713;DHT22;16623;53.632;10.016;2023-04-20T09:44:04;7.10;99.90
29713;DHT22;16623;53.632;10.016;2023-04-20T09:46:32;7.00;99.90
29713;DHT22;16623;53.632;10.016;2023-04-20T09:48:59;7.00;99.90
29713;DHT22;16623;53.632;10.016;2023-04-20T09:51:26;7.00;99.90
29713;DHT22;16623;53.632;10.016;2023-04-20T09:53:56;7.00;99.90
29713;DHT22;16623;53.632;10.016;2023-04-20T09:56:22;7.00;99.90
29713;DHT22;16623;53.632;10.016;2023-04-20T09:58:49;8.30;99.90
29713;DHT22;16623;53.632;10.016;2023-04-20T10:01:15;7.00;99.90
29713;DHT22;16623;53.632;10.016;2023-04-20T10:03:42;7.80;99.90
29713;DHT22;16623;53.632;10.016;2023-04-20T10:06:37;6.90;99.90
29713;DHT22;16623;53.632;10.016;2023-04-20T10:09:04;7.10;99.90
29713;DHT22;16623;53.632;10.016;2023-04-20T10:11:33;7.10;99.90
29713;DHT22;16623;53.632;10.016;2023-04-20T10:14:12;7.30;99.90
29713;DHT22;16623;53.632;10.016;2023-04-20T10:16:39;7.30;99.90
29713;DHT22;16623;53.632;10.016;2023-04-20T10:19:05;7.50;99.90
29713;DHT22;16623;53.632;10.016;2023-04-20T10:21:31;7.70;99.90
29713;DHT22;16623;53.632;10.016;2023-04-20T10:23:59;7.80;99.90
29713;DHT22;16623;53.632;10.016;2023-04-20T10:26:44;7.90;99.90
29713;DHT22;16623;53.632;10.016;2023-04-20T10:29:30;8.00;99.90
29713;DHT22;16623;53.632;10.016;2023-04-20T10:31:56;8.10;99.90
29713;DHT22;16623;53.632;10.016;2023-04-20T10:34:32;8.20;99.90
29713;DHT22;16623;53.632;10.016;2023-04-20T10:37:16;8.10;99.90
29713;DHT22;16623;53.632;10.016;2023-04-20T10:39:46;7.90;99.90
29713;DHT22;16623;53.632;10.016;2023-04-20T10:42:12;7.80;99.90
29713;DHT22;16623;53.632;10.016;2023-04-20T10:44:48;7.70;99.90
29713;DHT22;16623;53.632;10.016;2023-04-20T10:47:14;7.80;99.90
29713;DHT22;16623;53.632;10.016;2023-04-20T10:49:40;7.80;99.90
29713;DHT22;16623;53.632;10.016;2023-04-20T10:52:06;7.70;99.90
29713;DHT22;16623;53.632;10.016;2023-04-20T10:54:39;7.70;99.90
29713;DHT22;16623;53.632;10.016;2023-04-20T10:57:05;7.70;99.90
29713;DHT22;16623;53.632;10.016;2023-04-20T10:59:31;7.70;99.90
29713;DHT22;16623;53.632;10.016;2023-04-20T11:01:58;7.80;99.90
29713;DHT22;16623;53.632;10.016;2023-04-20T11:04:32;7.80;99.90
29713;DHT22;16623;53.632;10.016;2023-04-20T11:07:09;7.80;99.90
29713;DHT22;16623;53.632;10.016;2023-04-20T11:09:35;7.90;99.90
29713;DHT22;16623;53.632;10.016;2023-04-20T11:12:03;7.80;99.90
29713;DHT22;16623;53.632;10.016;2023-04-20T11:14:31;7.80;99.90
29713;DHT22;16623;53.632;10.016;2023-04-20T11:16:57;8.10;99.90
29713;DHT22;16623;53.632;10.016;2023-04-20T11:19:33;8.20;99.90
29713;DHT22;16623;53.632;10.016;2023-04-20T11:22:03;8.50;99.90
29713;DHT22;16623;53.632;10.016;2023-04-20T11:24:31;8.60;99.90
29713;DHT22;16623;53.632;10.016;2023-04-20T11:26:58;8.80;99.90
29713;DHT22;16623;53.632;10.016;2023-04-20T11:29:38;9.00;99.90
29713;DHT22;16623;53.632;10.016;2023-04-20T11:32:05;9.00;99.90
29713;DHT22;16623;53.632;10.016;2023-04-20T11:34:32;8.90;99.90
29713;DHT22;16623;53.632;10.016;2023-04-20T11:37:09;9.30;99.90
29713;DHT22;16623;53.632;10.016;2023-04-20T11:39:35;8.70;99.90
29713;DHT22;16623;53.632;10.016;2023-04-20T11:42:01;8.70;99.90
29713;DHT22;16623;53.632;10.016;2023-04-20T11:44:27;8.70;99.90
29713;DHT22;16623;53.632;10.016;2023-04-20T11:46:53;8.70;99.90
29713;DHT22;16623;53.632;10.016;2023-04-20T11:49:25;8.80;99.90
29713;DHT22;16623;53.632;10.016;2023-04-20T11:51:51;8.80;99.90
29713;DHT22;16623;53.632;10.016;2023-04-20T11:54:16;8.80;99.90
29713;DHT22;16623;53.632;10.016;2023-04-20T11:56:46;8.90;99.90
29713;DHT22;16623;53.632;10.016;2023-04-20T11:59:12;8.90;99.90
29713;DHT22;16623;53.632;10.016;2023-04-20T12:01:39;8.80;99.90
29713;DHT22;16623;53.632;10.016;2023-04-20T12:04:05;8.80;99.90
29713;DHT22;16623;53.632;10.016;2023-04-20T12:06:31;8.70;99.90
29713;DHT22;16623;53.632;10.016;2023-04-20T12:08:57;8.60;99.90
29713;DHT22;16623;53.632;10.016;2023-04-20T12:11:23;8.80;99.90
29713;DHT22;16623;53.632;10.016;2023-04-20T12:13:49;8.70;99.90
29713;DHT22;16623;53.632;10.016;2023-04-20T12:16:15;8.70;99.90
29713;DHT22;16623;53.632;10.016;2023-04-20T12:18:41;8.70;99.90
29713;DHT22;16623;53.632;10.016;2023-04-20T12:21:06;8.70;99.90
29713;DHT22;16623;53.632;10.016;2023-04-20T12:23:32;8.70;99.90
29713;DHT22;16623;53.632;10.016;2023-04-20T12:25:58;8.70;99.90
29713;DHT22;16623;53.632;10.016;2023-04-20T12:28:24;8.60;99.90
29713;DHT22;16623;53.632;10.016;2023-04-20T12:30:49;8.60;99.90
29713;DHT22;16623;53.632;10.016;2023-04-20T12:33:15;8.60;99.90
29713;DHT22;16623;53.632;10.016;2023-04-20T12:35:42;8.60;99.90
29713;DHT22;16623;53.632;10.016;2023-04-20T12:38:07;8.60;99.90
29713;DHT22;16623;53.632;10.016;2023-04-20T12:40:34;8.60;99.90
29713;DHT22;16623;53.632;10.016;2023-04-20T12:43:00;8.70;99.90
29713;DHT22;16623;53.632;10.016;2023-04-20T12:45:25;8.70;99.90
29713;DHT22;16623;53.632;10.016;2023-04-20T12:47:51;8.70;99.90
29713;DHT22;16623;53.632;10.016;2023-04-20T12:50:16;8.70;99.90
29713;DHT22;16623;53.632;10.016;2023-04-20T12:52:42;8.70;99.90
29713;DHT22;16623;53.632;10.016;2023-04-20T12:55:08;8.80;99.90
29713;DHT22;16623;53.632;10.016;2023-04-20T12:57:34;8.80;99.90
29713;DHT22;16623;53.632;10.016;2023-04-20T13:00:00;8.90;99.90
29713;DHT22;16623;53.632;10.016;2023-04-20T13:02:27;9.00;99.90
29713;DHT22;16623;53.632;10.016;2023-04-20T13:04:53;9.20;99.90
29713;DHT22;16623;53.632;10.016;2023-04-20T13:07:18;9.30;99.90
29713;DHT22;16623;53.632;10.016;2023-04-20T13:09:44;9.30;99.90
29713;DHT22;16623;53.632;10.016;2023-04-20T13:12:09;9.40;99.90
29713;DHT22;16623;53.632;10.016;2023-04-20T13:14:35;9.20;99.90
29713;DHT22;16623;53.632;10.016;2023-04-20T13:17:01;9.30;99.90
29713;DHT22;16623;53.632;10.016;2023-04-20T13:19:28;9.40;99.90
29713;DHT22;16623;53.632;10.016;2023-04-20T13:21:54;9.50;99.90
29713;DHT22;16623;53.632;10.016;2023-04-20T13:24:20;9.70;99.90
29713;DHT22;16623;53.632;10.016;2023-04-20T13:26:45;9.80;99.90
29713;DHT22;16623;53.632;10.016;2023-04-20T13:29:11;9.90;99.90
29713;DHT22;16623;53.632;10.016;2023-04-20T13:31:36;9.90;99.90
29713;DHT22;16623;53.632;10.016;2023-04-20T13:34:02;10.00;99.90
29713;DHT22;16623;53.632;10.016;2023-04-20T13:36:28;10.10;99.90
29713;DHT22;16623;53.632;10.016;2023-04-20T13:38:54;11.60;99.90
29713;DHT22;16623;53.632;10.016;2023-04-20T13:41:21;10.20;99.90
29713;DHT22;16623;53.632;10.016;2023-04-20T13:43:48;10.20;99.90
29713;DHT22;16623;53.632;10.016;2023-04-20T13:46:14;10.20;99.90
29713;DHT22;16623;53.632;10.016;2023-04-20T13:48:40;10.10;99.90
29713;DHT22;16623;53.632;10.016;2023-04-20T13:51:06;10.20;99.90
29713;DHT22;16623;53.632;10.016;2023-04-20T13:53:32;10.20;99.90
29713;DHT22;16623;53.632;10.016;2023-04-20T13:55:58;10.20;99.90
29713;DHT22;16623;53.632;10.016;2023-04-20T13:58:23;10.20;99.90
29713;DHT22;16623;53.632;10.016;2023-04-20T14:00:49;10.30;99.90
29713;DHT22;16623;53.632;10.016;2023-04-20T14:03:14;10.30;99.90
29713;DHT22;16623;53.632;10.016;2023-04-20T14:05:43;10.30;99.90
29713;DHT22;16623;53.632;10.016;2023-04-20T14:08:10;10.30;99.90
29713;DHT22;16623;53.632;10.016;2023-04-20T14:10:38;10.40;99.90
29713;DHT22;16623;53.632;10.016;2023-04-20T14:13:04;10.40;99.90
29713;DHT22;16623;53.632;10.016;2023-04-20T14:15:30;10.40;99.90
29713;DHT22;16623;53.632;10.016;2023-04-20T14:17:56;10.40;99.90
29713;DHT22;16623;53.632;10.016;2023-04-20T14:20:21;10.30;99.90
29713;DHT22;16623;53.632;10.016;2023-04-20T14:22:47;10.40;99.90
29713;DHT22;16623;53.632;10.016;2023-04-20T14:25:13;10.40;99.90
29713;DHT22;16623;53.632;10.016;2023-04-20T14:27:38;10.40;99.90
29713;DHT22;16623;53.632;10.016;2023-04-20T14:30:04;10.40;99.90
29713;DHT22;16623;53.632;10.016;2023-04-20T14:32:32;10.50;99.90
29713;DHT22;16623;53.632;10.016;2023-04-20T14:34:58;10.50;99.90
29713;DHT22;16623;53.632;10.016;2023-04-20T14:37:24;10.50;99.90
29713;DHT22;16623;53.632;10.016;2023-04-20T14:39:51;10.50;99.90
29713;DHT22;16623;53.632;10.016;2023-04-20T14:42:17;10.60;99.90
29713;DHT22;16623;53.632;10.016;2023-04-20T14:44:43;10.60;99.90
29713;DHT22;16623;53.632;10.016;2023-04-20T14:47:08;10.70;99.90
29713;DHT22;16623;53.632;10.016;2023-04-20T14:49:36;10.80;99.90
29713;DHT22;16623;53.632;10.016;2023-04-20T14:52:01;10.80;99.90
29713;DHT22;16623;53.632;10.016;2023-04-20T14:54:27;10.90;99.90
29713;DHT22;16623;53.632;10.016;2023-04-20T14:56:54;10.80;99.90
29713;DHT22;16623;53.632;10.016;2023-04-20T14:59:20;10.90;99.90
29713;DHT22;16623;53.632;10.016;2023-04-20T15:01:45;11.10;99.90
29713;DHT22;16623;53.632;10.016;2023-04-20T15:04:12;11.10;99.90
29713;DHT22;16623;53.632;10.016;2023-04-20T15:06:38;11.20;99.90
29713;DHT22;16623;53.632;10.016;2023-04-20T15:09:03;11.30;99.90
29713;DHT22;16623;53.632;10.016;2023-04-20T15:11:29;11.40;99.90
29713;DHT22;16623;53.632;10.016;2023-04-20T15:13:55;11.60;99.90
29713;DHT22;16623;53.632;10.016;2023-04-20T15:16:20;11.50;99.90
29713;DHT22;16623;53.632;10.016;2023-04-20T15:18:46;11.70;99.90
29713;DHT22;16623;53.632;10.016;2023-04-20T15:21:11;11.80;99.90
29713;DHT22;16623;53.632;10.016;2023-04-20T15:23:37;11.90;99.90
29713;DHT22;16623;53.632;10.016;2023-04-20T15:26:03;11.90;99.90
29713;DHT22;16623;53.632;10.016;2023-04-20T15:28:30;11.90;99.90
29713;DHT22;16623;53.632;10.016;2023-04-20T15:30:55;11.90;99.90
29713;DHT22;16623;53.632;10.016;2023-04-20T15:33:21;11.80;99.90
29713;DHT22;16623;53.632;10.016;2023-04-20T15:35:56;11.90;99.90
29713;DHT22;16623;53.632;10.016;2023-04-20T15:38:21;11.80;99.90